createdAt,value
2018-05-12T00:01:17.597Z,79.10
2018-05-12T00:03:47.550Z,79.00
2018-05-12T00:06:18.232Z,79.50
2018-05-12T00:08:48.204Z,79.50
2018-05-12T00:11:21.388Z,79.50
2018-05-12T00:13:52.107Z,80.00
2018-05-12T00:16:22.057Z,80.00
2018-05-12T00:18:52.014Z,79.90
2018-05-12T00:21:21.935Z,79.90
2018-05-12T00:23:51.885Z,80.90
2018-05-12T00:26:21.803Z,80.00
2018-05-12T00:28:51.739Z,80.40
2018-05-12T00:31:21.659Z,80.30
2018-05-12T00:33:52.387Z,80.70
2018-05-12T00:36:22.292Z,80.60
2018-05-12T00:38:52.263Z,80.40
2018-05-12T00:41:22.191Z,80.50
2018-05-12T00:43:52.907Z,80.00
2018-05-12T00:46:23.608Z,80.10
2018-05-12T00:48:53.591Z,80.10
2018-05-12T00:51:23.509Z,80.40
2018-05-12T00:53:53.446Z,80.60
2018-05-12T00:56:23.370Z,81.10
2018-05-12T00:58:53.297Z,81.30
2018-05-12T01:01:23.202Z,81.40
2018-05-12T01:03:53.127Z,82.10
2018-05-12T01:06:23.093Z,82.60
2018-05-12T01:08:53.019Z,83.00
2018-05-12T01:11:22.943Z,83.60
2018-05-12T01:13:52.861Z,83.70
2018-05-12T01:16:22.768Z,84.50
2018-05-12T01:18:52.687Z,84.50
2018-05-12T01:21:22.643Z,85.00
2018-05-12T01:23:52.556Z,85.40
2018-05-12T01:26:22.488Z,85.40
2018-05-12T01:28:52.393Z,85.90
2018-05-12T01:31:22.332Z,86.30
2018-05-12T01:33:52.234Z,86.40
2018-05-12T01:36:22.187Z,86.70
2018-05-12T01:38:52.168Z,87.60
2018-05-12T01:41:22.103Z,86.90
2018-05-12T01:43:52.030Z,87.60
2018-05-12T01:46:21.957Z,88.10
2018-05-12T01:48:51.872Z,88.20
2018-05-12T01:51:22.569Z,89.80
2018-05-12T01:53:52.499Z,88.90
2018-05-12T01:56:22.462Z,89.50
2018-05-12T01:58:52.367Z,89.50
2018-05-12T02:01:22.332Z,90.00
2018-05-12T02:03:52.262Z,90.20
2018-05-12T02:06:22.161Z,90.40
2018-05-12T02:08:52.189Z,90.60
2018-05-12T02:11:22.112Z,90.60
2018-05-12T02:13:52.796Z,91.20
2018-05-12T02:16:22.731Z,90.80
2018-05-12T02:18:52.659Z,91.00
2018-05-12T02:21:22.601Z,91.20
2018-05-12T02:23:53.288Z,90.70
2018-05-12T02:26:23.234Z,90.60
2018-05-12T02:28:53.909Z,91.60
2018-05-12T02:31:23.828Z,91.60
2018-05-12T02:33:53.740Z,91.70
2018-05-12T02:36:23.648Z,90.90
2018-05-12T02:39:07.266Z,91.80
2018-05-12T02:41:37.194Z,91.90
2018-05-12T02:44:07.125Z,91.00
2018-05-12T02:46:37.035Z,90.90
2018-05-12T02:49:06.940Z,91.20
2018-05-12T02:51:36.882Z,91.60
2018-05-12T02:54:06.783Z,91.70
2018-05-12T02:56:36.698Z,91.80
2018-05-12T02:59:06.707Z,92.10
2018-05-12T03:01:36.622Z,92.50
2018-05-12T03:04:06.792Z,91.90
2018-05-12T03:06:37.497Z,91.80
2018-05-12T03:09:07.417Z,91.70
2018-05-12T03:11:37.323Z,92.20
2018-05-12T03:14:07.241Z,91.30
2018-05-12T03:16:37.927Z,90.80
2018-05-12T03:19:07.850Z,91.00
2018-05-12T03:21:37.792Z,91.50
2018-05-12T03:24:07.722Z,91.80
2018-05-12T03:26:37.684Z,91.60
2018-05-12T03:29:07.627Z,91.50
2018-05-12T03:31:37.587Z,91.70
2018-05-12T03:34:07.496Z,92.60
2018-05-12T03:36:37.452Z,92.80
2018-05-12T03:39:08.144Z,93.40
2018-05-12T03:41:38.079Z,93.20
2018-05-12T03:44:08.010Z,93.10
2018-05-12T03:46:37.965Z,93.40
2018-05-12T03:49:07.897Z,93.60
2018-05-12T03:51:37.911Z,94.10
2018-05-12T03:54:07.809Z,94.00
2018-05-12T03:56:38.524Z,94.30
2018-05-12T03:59:08.430Z,94.20
2018-05-12T04:01:38.400Z,94.90
2018-05-12T04:04:25.920Z,94.90
2018-05-12T04:07:13.851Z,95.50
2018-05-12T04:12:51.819Z,94.60
2018-05-12T04:15:21.757Z,95.40
2018-05-12T04:17:52.451Z,95.70
2018-05-12T04:20:23.193Z,95.60
2018-05-12T04:22:53.126Z,95.50
2018-05-12T04:25:23.831Z,95.70
2018-05-12T04:27:54.494Z,95.40
2018-05-12T04:30:25.184Z,95.30
2018-05-12T04:32:55.139Z,95.20
2018-05-12T04:35:25.058Z,95.40
2018-05-12T04:37:55.756Z,94.60
2018-05-12T04:40:25.716Z,94.50
2018-05-12T04:42:55.640Z,95.40
2018-05-12T04:45:25.561Z,95.00
2018-05-12T04:47:55.479Z,95.10
2018-05-12T04:50:25.416Z,95.20
2018-05-12T04:52:55.339Z,95.80
2018-05-12T04:55:25.236Z,95.50
2018-05-12T04:57:55.163Z,96.10
2018-05-12T05:00:25.096Z,96.60
2018-05-12T05:02:55.026Z,97.00
2018-05-12T05:05:25.709Z,97.70
2018-05-12T05:07:55.692Z,97.70
2018-05-12T05:10:25.611Z,98.20
2018-05-12T05:12:55.517Z,98.60
2018-05-12T05:15:25.456Z,98.60
2018-05-12T05:17:55.371Z,98.30
2018-05-12T05:20:25.276Z,99.40
2018-05-12T05:22:55.209Z,99.20
2018-05-12T05:25:25.106Z,99.40
2018-05-12T05:27:55.075Z,98.40
2018-05-12T05:30:25.769Z,98.50
2018-05-12T05:32:55.934Z,98.30
2018-05-12T05:35:25.890Z,98.20
2018-05-12T05:37:55.844Z,98.30
2018-05-12T05:40:26.267Z,99.10
2018-05-12T05:42:57.003Z,98.90
2018-05-12T05:45:26.950Z,98.80
2018-05-12T05:47:56.910Z,99.50
2018-05-12T05:50:26.830Z,99.50
2018-05-12T05:52:56.814Z,99.50
2018-05-12T05:55:26.774Z,99.60
2018-05-12T05:58:10.179Z,99.10
2018-05-12T06:00:40.106Z,99.00
2018-05-12T06:03:10.856Z,98.40
2018-05-12T06:05:41.557Z,98.00
2018-05-12T06:08:11.512Z,98.00
2018-05-12T06:10:42.349Z,98.40
2018-05-12T06:13:13.086Z,98.00
2018-05-12T06:15:43.019Z,97.90
2018-05-12T06:18:13.049Z,98.10
2018-05-12T06:20:43.680Z,97.50
2018-05-12T06:23:13.659Z,97.40
2018-05-12T06:25:43.580Z,97.50
2018-05-12T06:28:13.540Z,97.50
2018-05-12T06:30:44.212Z,97.10
2018-05-12T06:33:14.138Z,97.10
2018-05-12T06:35:44.061Z,97.30
2018-05-12T06:38:13.993Z,96.90
2018-05-12T06:40:43.947Z,97.50
2018-05-12T06:43:17.511Z,97.40
2018-05-12T06:45:47.441Z,96.80
2018-05-12T06:48:17.389Z,96.30
2018-05-12T06:50:47.393Z,95.60
2018-05-12T06:53:17.282Z,95.20
2018-05-12T06:55:47.247Z,95.30
2018-05-12T06:58:17.181Z,95.10
2018-05-12T07:00:51.984Z,94.70
2018-05-12T07:03:21.893Z,94.40
2018-05-12T07:05:52.564Z,93.30
2018-05-12T07:08:47.552Z,93.30
2018-05-12T07:11:17.491Z,92.60
2018-05-12T07:13:47.446Z,92.80
2018-05-12T07:16:17.389Z,92.20
2018-05-12T07:18:49.366Z,91.50
2018-05-12T07:21:19.317Z,91.50
2018-05-12T07:23:49.276Z,91.60
2018-05-12T07:26:19.221Z,91.50
2018-05-12T07:28:49.181Z,91.20
2018-05-12T07:31:19.103Z,91.60
2018-05-12T07:33:49.067Z,91.20
2018-05-12T07:36:18.990Z,91.00
2018-05-12T07:38:48.958Z,90.10
2018-05-12T07:41:18.891Z,90.00
2018-05-12T07:43:48.855Z,90.70
2018-05-12T07:46:19.530Z,88.60
2018-05-12T07:48:49.483Z,88.70
2018-05-12T07:51:19.396Z,87.50
2018-05-12T07:53:49.360Z,87.50
2018-05-12T07:56:19.300Z,86.80
2018-05-12T07:58:49.274Z,86.90
2018-05-12T08:01:19.184Z,87.80
2018-05-12T08:03:49.163Z,86.40
2018-05-12T08:06:19.101Z,86.00
2018-05-12T08:08:49.843Z,86.20
2018-05-12T08:11:19.774Z,86.20
2018-05-12T08:13:49.755Z,87.20
2018-05-12T08:16:20.446Z,84.70
2018-05-12T08:18:50.410Z,84.70
2018-05-12T08:21:21.105Z,84.20
2018-05-12T08:23:51.078Z,84.20
2018-05-12T08:26:20.992Z,82.30
2018-05-12T08:28:50.944Z,81.30
2018-05-12T08:31:20.889Z,80.80
2018-05-12T08:33:51.602Z,78.50
2018-05-12T08:36:21.537Z,78.40
2018-05-12T08:38:52.271Z,79.00
2018-05-12T08:41:22.988Z,76.80
2018-05-12T08:43:52.915Z,76.80
2018-05-12T08:46:23.617Z,75.80
2018-05-12T08:48:53.543Z,76.70
2018-05-12T08:51:23.485Z,75.90
2018-05-12T08:53:53.417Z,76.00
2018-05-12T08:56:23.390Z,75.80
2018-05-12T08:58:54.069Z,74.80
2018-05-12T09:01:23.998Z,74.90
2018-05-12T09:03:53.966Z,74.30
2018-05-12T09:06:24.662Z,72.10
2018-05-12T09:08:54.630Z,72.10
2018-05-12T09:11:24.547Z,72.30
2018-05-12T09:13:54.504Z,72.30
2018-05-12T09:16:24.445Z,72.00
2018-05-12T09:18:55.175Z,72.80
2018-05-12T09:21:25.835Z,74.10
2018-05-12T09:23:55.793Z,74.10
2018-05-12T09:26:25.740Z,71.10
2018-05-12T09:28:55.721Z,71.30
2018-05-12T09:31:25.652Z,71.50
2018-05-12T09:33:55.597Z,70.00
2018-05-12T09:36:25.516Z,68.00
2018-05-12T09:38:55.456Z,66.60
2018-05-12T09:41:25.389Z,66.10
2018-05-12T09:43:55.361Z,66.20
2018-05-12T09:46:25.274Z,66.40
2018-05-12T09:48:55.300Z,65.90
2018-05-12T09:51:25.222Z,64.70
2018-05-12T09:53:55.178Z,62.50
2018-05-12T09:56:25.075Z,63.30
2018-05-12T09:58:54.976Z,63.30
2018-05-12T10:01:24.905Z,63.30
2018-05-12T10:03:54.809Z,63.40
2018-05-12T10:06:24.715Z,62.40
2018-05-12T10:08:54.658Z,62.20
2018-05-12T10:11:24.636Z,63.10
2018-05-12T10:13:54.538Z,62.10
2018-05-12T10:16:24.446Z,62.70
2018-05-12T10:18:54.360Z,60.50
2018-05-12T10:21:24.269Z,61.60
2018-05-12T10:23:54.223Z,61.70
2018-05-12T10:26:24.155Z,61.60
2018-05-12T10:28:54.825Z,61.00
2018-05-12T10:31:24.720Z,61.00
2018-05-12T10:33:55.418Z,60.80
2018-05-12T10:36:25.338Z,60.80
2018-05-12T10:38:56.083Z,61.40
2018-05-12T10:41:26.094Z,61.40
2018-05-12T10:43:56.771Z,59.90
2018-05-12T10:46:26.678Z,59.90
2018-05-12T10:48:56.588Z,59.60
2018-05-12T10:51:27.483Z,60.10
2018-05-12T10:53:57.379Z,58.40
2018-05-12T10:56:27.325Z,58.30
2018-05-12T10:58:58.091Z,58.60
2018-05-12T11:01:28.755Z,58.10
2018-05-12T11:03:58.713Z,58.70
2018-05-12T11:06:28.644Z,57.40
2018-05-12T11:08:58.562Z,56.10
2018-05-12T11:11:29.266Z,55.70
2018-05-12T11:13:59.177Z,55.60
2018-05-12T11:16:29.895Z,55.60
2018-05-12T11:18:59.812Z,55.50
2018-05-12T11:21:30.592Z,54.90
2018-05-12T11:24:00.674Z,54.80
2018-05-12T11:26:30.695Z,54.40
2018-05-12T11:29:00.608Z,54.90
2018-05-12T11:31:31.259Z,53.50
2018-05-12T11:34:01.185Z,53.50
2018-05-12T11:36:31.082Z,53.60
2018-05-12T11:39:01.010Z,53.30
2018-05-12T11:41:30.926Z,52.90
2018-05-12T11:44:00.858Z,51.80
2018-05-12T11:46:30.801Z,51.70
2018-05-12T11:49:01.504Z,50.20
2018-05-12T11:51:31.433Z,49.50
2018-05-12T11:54:02.143Z,51.00
2018-05-12T11:56:32.053Z,50.50
2018-05-12T11:59:01.967Z,50.00
2018-05-12T12:01:31.882Z,49.30
2018-05-12T12:04:01.826Z,49.60
2018-05-12T12:06:32.514Z,48.30
2018-05-12T12:09:02.421Z,48.20
2018-05-12T12:11:32.323Z,47.50
2018-05-12T12:14:02.236Z,46.70
2018-05-12T12:16:32.202Z,47.00
2018-05-12T12:19:02.126Z,46.60
2018-05-12T12:21:32.821Z,46.70
2018-05-12T12:24:02.725Z,46.70
2018-05-12T12:26:32.614Z,46.60
2018-05-12T12:29:02.524Z,44.90
2018-05-12T12:31:32.440Z,44.60
2018-05-12T12:34:02.357Z,43.80
2018-05-12T12:36:32.285Z,43.50
2018-05-12T12:39:02.202Z,44.30
2018-05-12T12:41:32.091Z,44.30
2018-05-12T12:44:02.015Z,45.20
2018-05-12T12:46:32.774Z,44.90
2018-05-12T12:49:03.477Z,44.90
2018-05-12T12:51:33.443Z,45.20
2018-05-12T12:54:03.394Z,45.40
2018-05-12T12:56:33.352Z,44.90
2018-05-12T12:59:03.478Z,44.20
2018-05-12T13:01:33.911Z,44.00
2018-05-12T13:04:04.973Z,43.70
2018-05-12T13:06:35.662Z,43.10
2018-05-12T13:09:06.433Z,42.90
2018-05-12T13:11:37.160Z,42.70
2018-05-12T13:14:07.291Z,42.60
2018-05-12T13:16:37.457Z,42.50
2018-05-12T13:19:07.396Z,42.60
2018-05-12T13:21:37.579Z,43.80
2018-05-12T13:24:08.402Z,43.80
2018-05-12T13:26:38.325Z,43.70
2018-05-12T13:29:08.295Z,42.20
2018-05-12T13:31:39.018Z,43.40
2018-05-12T13:34:08.965Z,43.40
2018-05-12T13:36:39.070Z,43.10
2018-05-12T13:39:08.987Z,42.40
2018-05-12T13:41:39.020Z,42.10
2018-05-12T13:44:09.000Z,43.50
2018-05-12T13:46:39.010Z,42.00
2018-05-12T13:49:08.960Z,42.10
2018-05-12T13:51:38.935Z,41.00
2018-05-12T13:54:09.620Z,40.80
2018-05-12T13:56:40.140Z,41.40
2018-05-12T13:59:10.301Z,40.50
2018-05-12T14:01:40.381Z,41.00
2018-05-12T14:04:10.287Z,39.90
2018-05-12T14:06:40.224Z,39.90
2018-05-12T14:09:10.141Z,39.00
2018-05-12T14:11:40.052Z,39.10
2018-05-12T14:14:09.976Z,38.70
2018-05-12T14:16:39.894Z,38.30
2018-05-12T14:19:09.818Z,38.80
2018-05-12T14:21:40.530Z,36.90
2018-05-12T14:24:12.432Z,36.80
2018-05-12T14:26:43.123Z,33.70
2018-05-12T14:29:13.038Z,33.50
2018-05-12T14:31:42.943Z,32.40
2018-05-12T14:34:12.871Z,31.00
2018-05-12T14:36:42.823Z,30.30
2018-05-12T14:39:12.789Z,30.00
2018-05-12T14:41:42.721Z,29.90
2018-05-12T14:44:12.669Z,29.10
2018-05-12T14:46:42.608Z,28.80
2018-05-12T14:49:12.525Z,29.10
2018-05-12T14:51:42.475Z,28.70
2018-05-12T14:54:12.410Z,28.50
2018-05-12T14:56:43.138Z,28.90
2018-05-12T14:59:13.831Z,29.20
2018-05-12T15:01:43.780Z,29.20
2018-05-12T15:04:14.463Z,30.10
2018-05-12T15:06:44.409Z,30.10
2018-05-12T15:09:14.291Z,31.10
2018-05-12T15:11:44.243Z,32.50
2018-05-12T15:14:14.163Z,32.70
2018-05-12T15:16:44.071Z,32.60
2018-05-12T15:19:14.768Z,32.50
2018-05-12T15:21:44.656Z,32.50
2018-05-12T15:24:14.601Z,33.10
2018-05-12T15:26:44.543Z,34.70
2018-05-12T15:29:15.210Z,37.20
2018-05-12T15:31:45.153Z,36.40
2018-05-12T15:34:15.074Z,37.40
2018-05-12T15:36:44.981Z,38.80
2018-05-12T15:39:14.895Z,39.10
2018-05-12T15:41:44.810Z,40.00
2018-05-12T15:44:14.795Z,39.70
2018-05-12T15:46:45.439Z,41.60
2018-05-12T15:49:28.730Z,41.50
2018-05-12T15:51:58.650Z,42.30
2018-05-12T15:54:28.639Z,42.50
2018-05-12T15:56:59.333Z,43.20
2018-05-12T15:59:29.252Z,42.50
2018-05-12T16:01:59.181Z,43.40
2018-05-12T16:04:29.103Z,43.20
2018-05-12T16:06:59.014Z,43.90
2018-05-12T16:09:28.954Z,44.00
2018-05-12T16:11:58.850Z,45.20
2018-05-12T16:14:29.544Z,45.80
2018-05-12T16:16:59.449Z,45.70
2018-05-12T16:19:29.356Z,45.90
2018-05-12T16:21:59.277Z,45.70
2018-05-12T16:24:29.270Z,46.30
2018-05-12T16:26:59.194Z,46.80
2018-05-12T16:29:29.133Z,46.50
2018-05-12T16:31:59.066Z,46.50
2018-05-12T16:34:29.014Z,46.10
2018-05-12T16:36:58.919Z,46.20
2018-05-12T16:39:29.616Z,46.50
2018-05-12T16:41:59.540Z,46.50
2018-05-12T16:44:29.434Z,45.90
2018-05-12T16:46:59.359Z,46.50
2018-05-12T16:49:29.273Z,46.80
2018-05-12T16:51:59.995Z,45.80
2018-05-12T16:54:29.903Z,45.80
2018-05-12T16:56:59.823Z,45.20
2018-05-12T16:59:29.755Z,45.30
2018-05-12T17:01:59.682Z,44.70
2018-05-12T17:04:30.346Z,44.70
2018-05-12T17:07:00.273Z,44.60
2018-05-12T17:09:30.204Z,44.60
2018-05-12T17:12:10.759Z,44.90
2018-05-12T17:14:40.684Z,45.60
2018-05-12T17:17:10.593Z,46.00
2018-05-12T17:19:40.509Z,46.20
2018-05-12T17:22:10.412Z,46.70
2018-05-12T17:24:40.327Z,47.30
2018-05-12T17:27:10.249Z,47.80
2018-05-12T17:29:40.142Z,48.30
2018-05-12T17:32:10.862Z,49.50
2018-05-12T17:34:40.783Z,49.40
2018-05-12T17:37:10.716Z,50.10
2018-05-12T17:39:40.621Z,50.40
2018-05-12T17:42:10.530Z,50.40
2018-05-12T17:44:40.448Z,50.80
2018-05-12T17:47:10.333Z,51.00
2018-05-12T17:49:40.262Z,51.30
2018-05-12T17:52:10.187Z,51.60
2018-05-12T17:54:40.139Z,52.20
2018-05-12T17:57:10.853Z,52.70
2018-05-12T17:59:40.772Z,52.60
2018-05-12T18:02:10.664Z,53.30
2018-05-12T18:04:40.594Z,53.40
2018-05-12T18:07:10.491Z,53.70
2018-05-12T18:09:40.408Z,54.00
2018-05-12T18:12:10.341Z,54.30
2018-05-12T18:14:40.280Z,54.80
2018-05-12T18:17:11.000Z,55.40
2018-05-12T18:19:40.894Z,55.40
2018-05-12T18:22:10.802Z,55.80
2018-05-12T18:24:40.754Z,56.20
2018-05-12T18:27:10.700Z,56.40
2018-05-12T18:29:40.628Z,56.90
2018-05-12T18:32:10.540Z,57.40
2018-05-12T18:34:41.459Z,57.60
2018-05-12T18:37:11.372Z,57.90
2018-05-12T18:39:41.315Z,58.10
2018-05-12T18:42:11.231Z,58.60
2018-05-12T18:44:41.181Z,58.90
2018-05-12T18:47:11.833Z,59.40
2018-05-12T18:49:41.768Z,59.30
2018-05-12T18:52:11.670Z,59.60
2018-05-12T18:54:41.638Z,60.00
2018-05-12T18:57:11.534Z,60.30
2018-05-12T18:59:41.510Z,60.70
2018-05-12T19:02:11.442Z,61.00
2018-05-12T19:04:41.402Z,61.20
2018-05-12T19:07:12.109Z,62.20
2018-05-12T19:09:42.075Z,62.00
2018-05-12T19:12:12.006Z,62.50
2018-05-12T19:14:41.932Z,62.70
2018-05-12T19:17:11.930Z,63.20
2018-05-12T19:19:41.822Z,63.40
2018-05-12T19:22:11.735Z,63.70
2018-05-12T19:24:41.685Z,63.90
2018-05-12T19:27:11.607Z,64.20
2018-05-12T19:29:41.517Z,64.70
2018-05-12T19:32:11.426Z,65.10
2018-05-12T19:34:41.327Z,65.20
2018-05-12T19:37:11.250Z,65.60
2018-05-12T19:39:41.164Z,65.80
2018-05-12T19:42:11.090Z,66.10
2018-05-12T19:44:40.997Z,66.30
2018-05-12T19:47:10.926Z,66.60
2018-05-12T19:49:40.864Z,66.90
2018-05-12T19:52:11.551Z,67.50
2018-05-12T19:54:41.458Z,67.50
2018-05-12T19:57:11.354Z,67.70
2018-05-12T19:59:41.258Z,68.00
2018-05-12T20:02:11.172Z,68.20
2018-05-12T20:04:41.132Z,68.50
2018-05-12T20:07:11.039Z,68.90
2018-05-12T20:09:40.991Z,69.10
2018-05-12T20:12:11.683Z,69.70
2018-05-12T20:14:41.644Z,69.50
2018-05-12T20:17:12.327Z,70.10
2018-05-12T20:19:42.275Z,69.90
2018-05-12T20:22:12.930Z,70.40
2018-05-12T20:24:42.879Z,70.30
2018-05-12T20:27:12.829Z,70.90
2018-05-12T20:29:43.528Z,71.40
2018-05-12T20:32:14.214Z,71.60
2018-05-12T20:34:44.138Z,71.20
2018-05-12T20:37:14.110Z,71.90
2018-05-12T20:39:44.038Z,72.30
2018-05-12T20:42:14.734Z,72.80
2018-05-12T20:44:44.693Z,72.80
2018-05-12T20:47:14.620Z,73.00
2018-05-12T20:49:44.557Z,73.20
2018-05-12T20:52:14.459Z,73.20
2018-05-12T20:54:44.456Z,73.80
2018-05-12T20:57:14.386Z,73.70
2018-05-12T20:59:44.350Z,74.10
2018-05-12T21:02:14.277Z,74.90
2018-05-12T21:04:45.029Z,75.20
2018-05-12T21:07:14.943Z,75.20
2018-05-12T21:09:44.893Z,75.30
2018-05-12T21:12:15.590Z,75.80
2018-05-12T21:14:45.561Z,76.50
2018-05-12T21:17:15.464Z,76.20
2018-05-12T21:19:46.141Z,77.00
2018-05-12T21:22:16.095Z,77.60
2018-05-12T21:24:46.819Z,77.40
2018-05-12T21:27:16.746Z,77.20
2018-05-12T21:29:46.680Z,77.40
2018-05-12T21:32:18.550Z,77.60
2018-05-12T21:34:49.229Z,78.60
2018-05-12T21:37:19.178Z,78.30
2018-05-12T21:39:49.088Z,78.10
2018-05-12T21:42:19.014Z,78.40
2018-05-12T21:44:48.932Z,78.90
2018-05-12T21:47:27.219Z,78.70
2018-05-12T21:49:57.159Z,78.50
2018-05-12T21:52:27.847Z,79.20
2018-05-12T21:54:57.773Z,79.00
2018-05-12T21:57:27.736Z,79.50
2018-05-12T21:59:57.666Z,79.70
2018-05-12T22:02:27.618Z,79.90
2018-05-12T22:04:57.560Z,79.80
2018-05-12T22:07:28.246Z,81.20
2018-05-12T22:09:58.148Z,80.30
2018-05-12T22:12:28.056Z,80.70
2018-05-12T22:14:57.970Z,81.00
2018-05-12T22:17:27.892Z,81.20
2018-05-12T22:19:57.819Z,82.90
2018-05-12T22:22:27.738Z,82.60
2018-05-12T22:24:57.689Z,82.50
2018-05-12T22:27:28.386Z,83.50
2018-05-12T22:29:58.317Z,83.50
2018-05-12T22:32:28.235Z,83.90
2018-05-12T22:34:58.169Z,83.30
2018-05-12T22:37:28.088Z,84.40
2018-05-12T22:39:58.016Z,84.50
2018-05-12T22:42:27.925Z,84.90
2018-05-12T22:44:57.849Z,84.80
2018-05-12T22:47:27.794Z,85.40
2018-05-12T22:49:57.738Z,85.40
2018-05-12T22:52:28.449Z,85.90
2018-05-12T22:54:58.378Z,85.80
2018-05-12T22:57:29.078Z,86.70
2018-05-12T22:59:59.011Z,86.40
2018-05-12T23:02:28.943Z,86.90
2018-05-12T23:04:59.635Z,87.50
2018-05-12T23:07:29.546Z,87.40
2018-05-12T23:09:59.485Z,87.50
2018-05-12T23:12:30.176Z,88.50
2018-05-12T23:15:00.108Z,87.90
2018-05-12T23:17:30.038Z,88.80
2018-05-12T23:19:59.952Z,89.80
2018-05-12T23:22:29.890Z,89.00
2018-05-12T23:25:00.600Z,88.10
2018-05-12T23:27:30.514Z,87.90
2018-05-12T23:30:01.245Z,89.30
2018-05-12T23:32:31.184Z,89.00
2018-05-12T23:35:01.120Z,89.50
2018-05-12T23:37:31.095Z,89.40
2018-05-12T23:40:01.796Z,90.20
2018-05-12T23:42:31.711Z,90.10
2018-05-12T23:45:01.644Z,90.20
2018-05-12T23:47:31.590Z,90.30
2018-05-12T23:50:01.518Z,90.10
2018-05-12T23:52:31.497Z,90.50
2018-05-12T23:55:02.180Z,90.70
2018-05-12T23:57:32.148Z,90.60
